Time;durP1;ratioP1;P1;durP2;ratioP2;P2;SDS_P1;SDS_P2;PMS_P1;PMS_P2;Temp;Humidity;BMP_temperature;BMP_pressure;BME280_temperature;BME280_humidity;BME280_pressure;Samples;Min_cycle;Max_cycle;Signal;HPM_P1;HPM_P2
2024/01/05 00:00:57;;;;;;;6.07;3.40;;;;;;;8.20;98.47;99646.50;5051540;28;20086;-79
2024/01/05 00:03:23;;;;;;;7.38;4.40;;;;;;;8.19;98.46;99644.84;5054788;28;20468;-78
2024/01/05 00:05:48;;;;;;;7.05;3.28;;;;;;;8.23;98.73;99677.94;5069958;28;20127;-78
2024/01/05 00:08:13;;;;;;;6.85;3.70;;;;;;;8.24;98.39;99682.22;5069872;28;20059;-78
2024/01/05 00:10:40;;;;;;;8.10;5.88;;;;;;;8.14;97.67;99657.97;5055511;28;20035;-78
2024/01/05 00:13:06;;;;;;;8.00;3.50;;;;;;;7.91;99.07;99654.00;5069623;28;20048;-77
2024/01/05 00:15:32;;;;;;;5.53;3.20;;;;;;;8.10;99.03;99678.03;5068719;28;20035;-77
2024/01/05 00:17:57;;;;;;;6.50;3.63;;;;;;;8.21;98.47;99691.44;5069678;28;20033;-78
2024/01/05 00:20:23;;;;;;;6.30;3.58;;;;;;;8.12;98.07;99678.63;5058269;28;20028;-78
2024/01/05 00:22:48;;;;;;;7.53;3.55;;;;;;;8.07;98.89;99683.75;5069106;28;20051;-79
2024/01/05 00:25:16;;;;;;;8.07;3.75;;;;;;;7.95;98.94;99687.06;5069695;28;20945;-78
2024/01/05 00:27:42;;;;;;;6.20;3.58;;;;;;;7.97;98.19;99695.66;5069873;28;20783;-78
2024/01/05 00:30:08;;;;;;;5.47;2.75;;;;;;;8.19;96.89;99703.28;5069464;28;20039;-77
2024/01/05 00:32:33;;;;;;;4.53;2.80;;;;;;;8.28;95.43;99698.56;5069301;28;20032;-77
2024/01/05 00:34:59;;;;;;;4.65;2.45;;;;;;;8.37;94.57;99687.47;5063748;28;20421;-77
2024/01/05 00:37:24;;;;;;;4.70;2.40;;;;;;;8.58;92.73;99704.13;5069802;28;20036;-76
2024/01/05 00:39:50;;;;;;;4.50;2.50;;;;;;;8.60;91.04;99688.78;5069323;28;20048;-77
2024/01/05 00:42:15;;;;;;;4.85;2.60;;;;;;;8.74;90.55;99700.94;5068473;28;20413;-77
2024/01/05 00:44:41;;;;;;;5.15;2.50;;;;;;;8.96;89.79;99724.53;5051201;28;20062;-77
2024/01/05 00:47:07;;;;;;;4.65;2.50;;;;;;;8.88;90.38;99722.13;5069394;28;20028;-76
2024/01/05 00:49:32;;;;;;;6.20;3.05;;;;;;;8.63;90.45;99693.69;5051230;28;20077;-77
2024/01/05 00:51:58;;;;;;;4.70;3.05;;;;;;;8.67;90.13;99694.88;5068671;28;20502;-77
2024/01/05 00:54:25;;;;;;;4.82;2.72;;;;;;;8.62;91.26;99706.16;5068759;28;20036;-78
2024/01/05 00:56:50;;;;;;;4.68;2.70;;;;;;;8.58;89.40;99675.72;5069031;28;20056;-78
2024/01/05 00:59:19;;;;;;;7.00;2.80;;;;;;;8.70;89.65;99688.31;5068632;28;20060;-77
2024/01/05 01:01:44;;;;;;;5.75;3.80;;;;;;;8.81;89.78;99722.19;5050244;28;20119;-76
2024/01/05 01:04:10;;;;;;;6.85;3.13;;;;;;;8.59;90.51;99692.47;5052477;28;20119;-76
2024/01/05 01:06:35;;;;;;;6.22;3.05;;;;;;;8.62;90.82;99697.34;5068596;28;20409;-77
2024/01/05 01:09:00;;;;;;;5.18;2.88;;;;;;;8.59;90.30;99684.50;5068819;28;20032;-78
2024/01/05 01:11:27;;;;;;;5.45;4.05;;;;;;;8.61;90.53;99701.06;5055183;28;20123;-77
2024/01/05 01:13:52;;;;;;;5.53;3.00;;;;;;;8.53;91.04;99688.03;5067961;28;20048;-77
2024/01/05 01:16:18;;;;;;;4.90;3.15;;;;;;;8.60;89.66;99678.16;5069269;28;20029;-78
2024/01/05 01:18:43;;;;;;;6.55;3.25;;;;;;;8.51;91.04;99696.19;5069114;28;20469;-77
2024/01/05 01:21:08;;;;;;;5.72;2.75;;;;;;;8.30;92.04;99678.72;5068618;28;20055;-77
2024/01/05 01:23:34;;;;;;;4.28;2.70;;;;;;;8.24;92.27;99669.75;5050047;28;20032;-77
2024/01/05 01:25:59;;;;;;;5.40;3.17;;;;;;;8.43;92.11;99697.25;5068435;28;20400;-77
2024/01/05 01:28:25;;;;;;;5.45;2.67;;;;;;;8.44;91.71;99700.75;5050802;28;20025;-78
2024/01/05 01:30:50;;;;;;;4.85;2.70;;;;;;;8.33;91.37;99691.56;5068367;28;20028;-77
2024/01/05 01:33:15;;;;;;;4.68;2.40;;;;;;;8.42;91.45;99714.25;5050102;28;20040;-77
2024/01/05 01:35:41;;;;;;;6.43;2.70;;;;;;;8.28;91.06;99688.75;5068610;28;20509;-78
2024/01/05 01:38:06;;;;;;;5.30;2.55;;;;;;;8.39;91.22;99705.84;5068817;28;20036;-77
2024/01/05 01:40:31;;;;;;;5.53;2.50;;;;;;;8.39;91.81;99722.59;5067748;28;20476;-77
2024/01/05 01:42:57;;;;;;;21.85;14.73;;;;;;;8.24;92.88;99716.78;5067994;28;20032;-77
2024/01/05 01:45:22;;;;;;;11.13;7.05;;;;;;;8.12;93.42;99731.75;5067697;28;20035;-76
2024/01/05 01:47:50;;;;;;;5.90;3.20;;;;;;;8.03;94.07;99737.28;5068115;28;20556;-77
2024/01/05 01:50:15;;;;;;;8.03;4.13;;;;;;;7.90;94.35;99725.91;5068260;28;20119;-76
2024/01/05 01:52:45;;;;;;;7.30;4.25;;;;;;;7.67;95.94;99729.03;5067917;28;20111;-77
2024/01/05 01:55:12;;;;;;;6.60;3.15;;;;;;;7.57;96.20;99732.91;5067536;28;20051;-78
2024/01/05 01:57:38;;;;;;;6.18;3.67;;;;;;;7.27;96.97;99721.13;5068005;28;20025;-77
2024/01/05 02:00:05;;;;;;;5.47;3.00;;;;;;;7.28;97.87;99731.53;5050059;28;20408;-78
2024/01/05 02:02:32;;;;;;;6.97;3.95;;;;;;;7.30;98.11;99753.38;5067968;28;20166;-77
2024/01/05 02:04:59;;;;;;;5.57;3.38;;;;;;;7.26;98.54;99762.75;5067655;28;20056;-77
2024/01/05 02:07:25;;;;;;;8.18;4.18;;;;;;;7.08;99.23;99755.41;5067760;28;20029;-76
2024/01/05 02:09:51;;;;;;;5.22;3.50;;;;;;;6.89;98.54;99716.47;5067966;28;20104;-78
2024/01/05 02:12:16;;;;;;;5.63;3.47;;;;;;;6.96;99.23;99741.94;5067331;28;20057;-77
2024/01/05 02:14:43;;;;;;;5.38;2.92;;;;;;;7.09;98.57;99757.06;5049517;28;20149;-78
2024/01/05 02:17:40;;;;;;;5.00;2.60;;;;;;;7.05;99.82;99755.81;5067882;28;20040;-79
2024/01/05 02:20:06;;;;;;;5.88;3.08;;;;;;;7.10;100.00;99745.41;5033700;28;20036;-78
2024/01/05 02:22:34;;;;;;;5.28;2.85;;;;;;;7.27;99.84;99742.34;5067261;28;20032;-77
2024/01/05 02:25:01;;;;;;;5.18;2.55;;;;;;;7.30;99.38;99748.06;5067381;28;20115;-79
2024/01/05 02:27:26;;;;;;;6.25;3.10;;;;;;;7.26;98.25;99738.88;5067818;28;20036;-77
2024/01/05 02:29:52;;;;;;;6.57;2.97;;;;;;;7.30;99.06;99760.50;5067720;28;20024;-78
2024/01/05 02:32:17;;;;;;;7.10;3.38;;;;;;;7.28;97.90;99738.69;5067584;28;20037;-77
2024/01/05 02:34:43;;;;;;;6.25;3.00;;;;;;;7.33;97.90;99762.75;5067368;28;20059;-78
2024/01/05 02:37:09;;;;;;;6.20;2.85;;;;;;;7.28;99.17;99767.88;5049719;28;20033;-77
2024/01/05 02:39:34;;;;;;;5.85;3.20;;;;;;;6.90;100.00;99741.94;5067615;28;20417;-77
2024/01/05 02:41:59;;;;;;;5.00;2.85;;;;;;;6.94;100.00;99769.66;5067773;28;20116;-78
2024/01/05 02:44:25;;;;;;;5.95;3.50;;;;;;;7.02;99.74;99767.63;5049289;28;20417;-78
2024/01/05 02:46:51;;;;;;;6.80;3.15;;;;;;;6.71;100.00;99770.84;5067707;28;20058;-78
2024/01/05 02:49:16;;;;;;;6.55;3.25;;;;;;;6.82;100.00;99764.13;5049795;28;20037;-78
2024/01/05 02:51:41;;;;;;;8.23;3.35;;;;;;;6.75;100.00;99782.69;5067691;28;20474;-79
2024/01/05 02:54:07;;;;;;;6.65;3.38;;;;;;;6.76;100.00;99771.09;5067356;28;20067;-77
2024/01/05 02:56:34;;;;;;;7.53;3.45;;;;;;;6.60;100.00;99753.72;5067412;28;20035;-78
2024/01/05 02:59:01;;;;;;;6.40;3.70;;;;;;;6.43;100.00;99771.78;5067859;28;20031;-77
2024/01/05 03:01:26;;;;;;;7.90;4.03;;;;;;;6.18;100.00;99754.81;5065938;28;20563;-78
2024/01/05 03:03:52;;;;;;;7.35;3.88;;;;;;;6.04;100.00;99751.28;5066939;28;20025;-79
2024/01/05 03:06:19;;;;;;;6.53;3.38;;;;;;;6.34;100.00;99796.81;5067396;28;20034;-78
2024/01/05 03:08:45;;;;;;;5.68;3.35;;;;;;;6.23;100.00;99779.69;5067486;28;20036;-78
2024/01/05 03:11:10;;;;;;;6.95;3.95;;;;;;;5.93;100.00;99747.34;5067711;28;20025;-78
2024/01/05 03:13:36;;;;;;;6.95;3.80;;;;;;;6.09;100.00;99787.75;5067722;28;20044;-77
2024/01/05 03:16:02;;;;;;;6.88;3.42;;;;;;;5.80;100.00;99769.25;5067348;28;20489;-78
2024/01/05 03:18:27;;;;;;;5.95;3.40;;;;;;;5.89;100.00;99787.63;5049879;28;20055;-77
2024/01/05 03:20:53;;;;;;;5.38;3.40;;;;;;;5.69;100.00;99772.44;5067713;28;20131;-78
2024/01/05 03:23:18;;;;;;;6.65;3.80;;;;;;;5.59;100.00;99778.06;5067682;28;20025;-78
2024/01/05 03:25:45;;;;;;;5.32;3.03;;;;;;;5.68;100.00;99762.03;5070718;28;20024;-78
2024/01/05 03:28:11;;;;;;;7.18;2.90;;;;;;;5.96;100.00;99799.09;5071829;28;20028;-77
2024/01/05 03:30:41;;;;;;;5.18;3.08;;;;;;;5.92;100.00;99809.22;5053942;28;20074;-78
2024/01/05 03:33:07;;;;;;;4.57;2.55;;;;;;;5.70;100.00;99776.72;5076230;28;20770;-77
2024/01/05 03:35:32;;;;;;;5.20;3.00;;;;;;;5.87;100.00;99811.63;5081712;28;20092;-79
2024/01/05 03:37:58;;;;;;;7.20;3.22;;;;;;;5.66;100.00;99782.56;5081438;28;20099;-79
2024/01/05 03:40:23;;;;;;;5.78;3.08;;;;;;;5.74;100.00;99812.38;5080634;28;20032;-79
2024/01/05 03:42:48;;;;;;;4.43;2.78;;;;;;;5.41;100.00;99798.88;5080826;28;20115;-79
2024/01/05 03:45:14;;;;;;;4.90;2.72;;;;;;;5.14;100.00;99780.16;5081289;28;20082;-77
2024/01/05 03:47:40;;;;;;;5.60;3.10;;;;;;;5.33;100.00;99802.50;5081018;28;20037;-78
2024/01/05 03:50:06;;;;;;;5.00;2.97;;;;;;;5.68;100.00;99833.47;5063571;28;20055;-78
2024/01/05 03:52:31;;;;;;;6.13;3.35;;;;;;;5.28;100.00;99812.00;5081213;28;20048;-79
2024/01/05 03:54:57;;;;;;;6.93;2.92;;;;;;;4.83;100.00;99810.38;5062321;28;20028;-78
2024/01/05 03:57:23;;;;;;;5.55;2.95;;;;;;;4.61;100.00;99811.34;5078422;28;20036;-77
2024/01/05 03:59:49;;;;;;;4.35;2.60;;;;;;;4.78;100.00;99815.41;5078826;28;20074;-77
2024/01/05 04:02:14;;;;;;;5.05;2.85;;;;;;;4.93;100.00;99814.53;5077686;28;20492;-78
2024/01/05 04:04:40;;;;;;;5.90;2.67;;;;;;;5.16;100.00;99838.94;5077766;28;20570;-78
2024/01/05 04:07:06;;;;;;;5.38;2.92;;;;;;;5.24;100.00;99864.44;5078081;28;20024;-78
2024/01/05 04:09:32;;;;;;;4.75;3.30;;;;;;;5.32;100.00;99845.00;5078518;28;20036;-79
2024/01/05 04:11:57;;;;;;;5.40;2.55;;;;;;;5.38;100.00;99847.69;5075678;28;20041;-77
2024/01/05 04:14:23;;;;;;;5.78;2.95;;;;;;;4.94;100.00;99855.81;5077128;28;20033;-78
2024/01/05 04:16:49;;;;;;;5.40;3.30;;;;;;;5.17;100.00;99895.28;5056425;28;20474;-77
2024/01/05 04:19:14;;;;;;;5.32;2.92;;;;;;;5.00;100.00;99878.84;5073421;28;20501;-78
2024/01/05 04:21:39;;;;;;;4.85;2.78;;;;;;;5.21;100.00;99907.94;5072483;28;20040;-78
2024/01/05 04:24:05;;;;;;;7.53;3.40;;;;;;;4.98;100.00;99859.72;5071442;28;20054;-78
2024/01/05 04:26:31;;;;;;;6.57;3.38;;;;;;;5.16;100.00;99857.44;5052863;28;20035;-78
2024/01/05 04:28:57;;;;;;;14.90;8.13;;;;;;;5.34;100.00;99917.03;5070563;28;20580;-77
2024/01/05 04:31:22;;;;;;;9.82;7.07;;;;;;;5.22;100.00;99914.84;5070519;28;20043;-78
2024/01/05 04:33:48;;;;;;;11.35;6.65;;;;;;;4.72;100.00;99905.97;5052294;28;20039;-78
2024/01/05 04:36:18;;;;;;;11.98;7.07;;;;;;;4.71;100.00;99914.06;5069604;28;20032;-78
2024/01/05 04:38:44;;;;;;;13.02;8.57;;;;;;;4.63;100.00;99912.34;5070116;28;20101;-78
2024/01/05 04:41:11;;;;;;;114.68;49.30;;;;;;;4.61;100.00;99935.47;5069850;28;20452;-77
2024/01/05 04:43:36;;;;;;;147.80;65.35;;;;;;;4.65;100.00;99912.97;5069482;28;20394;-78
2024/01/05 04:46:02;;;;;;;44.78;24.58;;;;;;;4.15;100.00;99904.81;5050934;28;20036;-77
2024/01/05 04:48:27;;;;;;;21.15;13.77;;;;;;;4.11;100.00;99929.91;5069698;28;20029;-77
2024/01/05 04:50:53;;;;;;;21.67;12.35;;;;;;;3.98;100.00;99905.94;5069111;28;20115;-77
2024/01/05 04:53:18;;;;;;;21.38;15.88;;;;;;;3.72;100.00;99932.72;5069025;28;20025;-77
2024/01/05 04:55:43;;;;;;;14.10;9.77;;;;;;;3.74;100.00;99962.38;5068801;28;20400;-77
2024/01/05 04:58:09;;;;;;;25.80;15.70;;;;;;;3.96;100.00;99972.13;5068915;28;20037;-77
2024/01/05 05:00:34;;;;;;;14.25;9.45;;;;;;;4.11;100.00;99958.13;5050965;28;20020;-77
2024/01/05 05:03:00;;;;;;;16.17;10.27;;;;;;;3.97;100.00;99972.94;5068430;28;20507;-78
2024/01/05 05:05:25;;;;;;;16.75;10.18;;;;;;;3.67;100.00;99950.91;5068662;28;20034;-78
2024/01/05 05:07:52;;;;;;;31.45;18.45;;;;;;;4.00;100.00;99981.31;5068415;28;20033;-77
2024/01/05 05:10:17;;;;;;;37.90;25.38;;;;;;;4.02;100.00;99997.78;5068723;28;20023;-78
2024/01/05 05:12:43;;;;;;;35.35;23.45;;;;;;;3.70;100.00;99977.75;5050479;28;20052;-79
2024/01/05 05:15:10;;;;;;;29.30;19.45;;;;;;;3.80;100.00;99977.50;5050532;28;20504;-79
2024/01/05 05:17:35;;;;;;;29.23;19.63;;;;;;;3.89;100.00;99981.72;5068167;28;20109;-78
2024/01/05 05:20:01;;;;;;;29.10;21.15;;;;;;;4.25;100.00;100020.69;5050674;28;20044;-79
2024/01/05 05:22:26;;;;;;;28.50;19.70;;;;;;;4.07;100.00;100002.53;5068821;28;20067;-78
2024/01/05 05:24:51;;;;;;;29.05;19.83;;;;;;;4.31;100.00;100030.53;5050342;28;20036;-78
2024/01/05 05:27:17;;;;;;;33.90;21.45;;;;;;;4.23;100.00;100027.97;5068057;28;20094;-79
2024/01/05 05:29:43;;;;;;;29.42;17.48;;;;;;;4.14;100.00;100015.81;5068042;28;20451;-78
2024/01/05 05:32:08;;;;;;;30.88;20.05;;;;;;;4.11;100.00;100010.91;5068444;28;20043;-78
2024/01/05 05:34:34;;;;;;;25.45;17.98;;;;;;;4.10;100.00;100025.09;5068042;28;20399;-77
2024/01/05 05:36:59;;;;;;;21.40;15.02;;;;;;;4.10;100.00;100041.75;5067730;28;20074;-78
2024/01/05 05:39:25;;;;;;;17.85;12.45;;;;;;;4.15;100.00;100038.59;5067904;28;20040;-78
2024/01/05 05:41:50;;;;;;;25.15;14.85;;;;;;;4.06;100.00;100007.97;5068269;28;20103;-78
2024/01/05 05:44:15;;;;;;;29.58;17.63;;;;;;;4.08;100.00;100021.81;5067811;28;20115;-80
2024/01/05 05:46:41;;;;;;;28.10;15.85;;;;;;;4.14;100.00;100021.91;5049262;28;20054;-78
2024/01/05 05:49:06;;;;;;;29.35;15.95;;;;;;;4.27;100.00;100042.47;5067567;28;20081;-78
2024/01/05 05:51:33;;;;;;;24.13;14.65;;;;;;;4.23;100.00;100047.25;5066535;28;20051;-79
2024/01/05 05:53:58;;;;;;;26.00;14.20;;;;;;;4.09;100.00;100034.03;5067856;28;20025;-78
2024/01/05 05:56:23;;;;;;;38.72;25.33;;;;;;;3.85;100.00;100022.66;5049216;28;20095;-77
2024/01/05 05:58:49;;;;;;;48.53;39.15;;;;;;;3.82;100.00;100041.44;5067771;28;20031;-78
2024/01/05 06:01:16;;;;;;;24.17;18.45;;;;;;;3.86;100.00;100040.09;5067724;28;20033;-78
2024/01/05 06:03:42;;;;;;;29.42;21.15;;;;;;;3.79;100.00;100060.28;5068048;28;20082;-78
2024/01/05 06:06:22;;;;;;;60.67;30.95;;;;;;;3.54;100.00;100073.63;5067024;28;20032;-79
2024/01/05 06:08:51;;;;;;;33.28;20.80;;;;;;;3.39;100.00;100046.31;5052583;28;20052;-77
2024/01/05 06:11:18;;;;;;;34.08;21.80;;;;;;;3.62;100.00;100054.28;5067440;28;20033;-77
2024/01/05 06:13:44;;;;;;;35.28;21.98;;;;;;;4.02;100.00;100076.97;5067885;28;20049;-77
2024/01/05 06:16:10;;;;;;;42.17;27.13;;;;;;;3.83;100.00;100078.22;5067513;28;20092;-77
2024/01/05 06:18:36;;;;;;;39.05;24.20;;;;;;;4.20;100.00;100084.56;5049134;28;20060;-77
2024/01/05 06:21:01;;;;;;;59.92;34.97;;;;;;;4.25;100.00;100081.41;5049417;28;20107;-78
2024/01/05 06:23:27;;;;;;;52.00;30.27;;;;;;;3.99;100.00;100044.81;5067388;28;20111;-77
2024/01/05 06:25:52;;;;;;;33.13;20.10;;;;;;;3.75;100.00;100074.81;5049191;28;20020;-77
2024/01/05 06:28:18;;;;;;;40.88;25.95;;;;;;;4.22;100.00;100097.59;5066993;28;20028;-78
2024/01/05 06:30:43;;;;;;;40.35;24.73;;;;;;;4.07;100.00;100084.34;5067650;28;20074;-78
2024/01/05 06:33:09;;;;;;;27.27;17.80;;;;;;;3.83;100.00;100087.97;5067497;28;20470;-78
2024/01/05 06:35:34;;;;;;;27.08;16.20;;;;;;;4.01;100.00;100121.97;5067252;28;20410;-78
2024/01/05 06:38:00;;;;;;;26.52;19.80;;;;;;;3.93;100.00;100085.91;5066858;28;20032;-78
2024/01/05 06:40:25;;;;;;;33.50;22.50;;;;;;;4.08;100.00;100111.53;5067101;28;20041;-78
2024/01/05 06:42:51;;;;;;;28.65;20.33;;;;;;;4.05;100.00;100125.09;5067452;28;20029;-77
2024/01/05 06:45:16;;;;;;;28.67;18.25;;;;;;;4.13;100.00;100138.25;5066842;28;20502;-77
2024/01/05 06:47:42;;;;;;;29.45;17.27;;;;;;;4.14;100.00;100130.13;5048937;28;20048;-78
2024/01/05 06:50:07;;;;;;;32.08;20.38;;;;;;;4.51;100.00;100141.75;5067207;28;20489;-78
2024/01/05 06:52:33;;;;;;;29.00;18.70;;;;;;;4.64;100.00;100127.97;5049206;28;20025;-78
2024/01/05 06:54:59;;;;;;;26.92;18.02;;;;;;;5.04;100.00;100152.34;5048897;28;20024;-79
2024/01/05 06:57:25;;;;;;;31.65;20.88;;;;;;;5.13;100.00;100148.63;5066825;28;20037;-77
2024/01/05 06:59:50;;;;;;;33.33;19.67;;;;;;;5.28;100.00;100113.44;5068336;28;20062;-78
2024/01/05 07:02:16;;;;;;;24.88;16.52;;;;;;;5.46;100.00;100127.09;5062917;28;20108;-78
2024/01/05 07:04:42;;;;;;;21.25;14.52;;;;;;;5.62;100.00;100116.31;5070822;28;20051;-79
2024/01/05 07:07:07;;;;;;;22.38;14.82;;;;;;;5.74;100.00;100107.88;5070118;28;20119;-79
2024/01/05 07:09:32;;;;;;;22.92;13.32;;;;;;;5.77;100.00;100139.28;5070080;28;20017;-79
2024/01/05 07:11:59;;;;;;;129.43;82.90;;;;;;;6.01;100.00;100152.22;5069906;28;20078;-78
2024/01/05 07:14:27;;;;;;;51.53;32.78;;;;;;;5.88;100.00;100106.22;5070341;28;20063;-79
2024/01/05 07:16:54;;;;;;;34.75;21.92;;;;;;;6.03;100.00;100117.63;5069940;28;20412;-79
2024/01/05 07:19:19;;;;;;;23.30;15.38;;;;;;;6.42;100.00;100150.81;5067090;28;20090;-78
2024/01/05 07:21:45;;;;;;;31.60;20.33;;;;;;;6.47;99.86;100108.66;5070211;28;20036;-78
2024/01/05 07:24:14;;;;;;;32.50;20.90;;;;;;;6.90;96.45;100113.06;5051939;28;20039;-79
2024/01/05 07:26:39;;;;;;;62.38;37.83;;;;;;;6.98;95.71;100115.56;5069345;28;20576;-78
2024/01/05 07:29:05;;;;;;;41.35;26.55;;;;;;;7.13;98.68;100118.94;5069150;28;20016;-79
2024/01/05 07:31:31;;;;;;;33.10;21.88;;;;;;;7.44;97.29;100146.84;5069854;28;20090;-79
2024/01/05 07:33:56;;;;;;;52.67;37.30;;;;;;;7.56;95.40;100145.28;5069875;28;20013;-79
2024/01/05 07:36:22;;;;;;;43.22;28.23;;;;;;;7.71;95.55;100155.75;5070008;28;20029;-80
2024/01/05 07:38:47;;;;;;;40.45;27.15;;;;;;;7.69;95.20;100131.25;5069024;28;20108;-79
2024/01/05 07:41:16;;;;;;;32.50;22.42;;;;;;;7.93;96.84;100142.38;5054419;28;20110;-78
2024/01/05 07:43:42;;;;;;;34.53;23.88;;;;;;;8.12;96.29;100138.94;5070185;28;20064;-79
2024/01/05 07:46:07;;;;;;;32.92;22.95;;;;;;;8.27;96.58;100162.66;5069833;28;20718;-79
2024/01/05 07:48:32;;;;;;;32.35;22.77;;;;;;;8.52;94.05;100147.03;5069458;28;20595;-78
2024/01/05 07:51:02;;;;;;;31.05;22.55;;;;;;;9.15;89.10;100161.72;5069685;28;20033;-78
2024/01/05 07:53:28;;;;;;;31.10;25.48;;;;;;;8.99;86.67;100176.25;5069614;28;20451;-78
2024/01/05 07:55:54;;;;;;;22.55;20.17;;;;;;;9.11;84.88;100165.81;5070081;28;20108;-78
2024/01/05 07:58:19;;;;;;;19.13;16.63;;;;;;;9.21;82.59;100155.56;5069633;28;20032;-78
2024/01/05 08:00:45;;;;;;;19.45;16.05;;;;;;;9.54;83.35;100176.78;5069675;28;20501;-79
2024/01/05 08:03:11;;;;;;;21.58;18.60;;;;;;;9.72;83.43;100183.28;5069876;28;20052;-78
2024/01/05 08:05:37;;;;;;;16.27;12.48;;;;;;;9.88;79.67;100158.84;5069786;28;20036;-78
2024/01/05 08:08:02;;;;;;;10.63;6.30;;;;;;;10.14;78.70;100178.41;5069453;28;20032;-79
2024/01/05 08:10:29;;;;;;;9.82;6.60;;;;;;;10.26;77.87;100182.03;5068804;28;20037;-78
2024/01/05 08:12:55;;;;;;;8.95;6.47;;;;;;;10.17;75.59;100156.63;5067778;28;20102;-78
2024/01/05 08:15:21;;;;;;;6.50;3.58;;;;;;;10.57;75.43;100199.09;5068507;28;20033;-78
2024/01/05 08:17:46;;;;;;;17.90;16.15;;;;;;;10.53;76.32;100176.56;5056567;28;20036;-78
2024/01/05 08:20:12;;;;;;;8.05;4.30;;;;;;;10.83;73.12;100185.56;5069008;28;20029;-77
2024/01/05 08:22:37;;;;;;;8.82;5.35;;;;;;;10.88;72.23;100178.75;5051181;28;20028;-78
2024/01/05 08:25:03;;;;;;;8.25;4.25;;;;;;;11.29;70.25;100206.72;5069557;28;20494;-78
2024/01/05 08:27:29;;;;;;;7.10;4.45;;;;;;;11.45;71.73;100214.16;5069259;28;20036;-78
2024/01/05 08:29:55;;;;;;;8.30;5.03;;;;;;;11.51;71.77;100217.81;5050595;28;20029;-80
2024/01/05 08:32:21;;;;;;;7.43;5.57;;;;;;;11.41;72.06;100202.28;5050907;28;20162;-77
2024/01/05 08:34:46;;;;;;;14.07;6.40;;;;;;;11.50;76.05;100210.81;5068724;28;20021;-78
2024/01/05 08:37:11;;;;;;;12.00;4.95;;;;;;;11.58;75.51;100200.66;5069023;28;20551;-79
2024/01/05 08:39:41;;;;;;;7.03;4.10;;;;;;;11.56;73.89;100194.72;5068314;28;20032;-78
2024/01/05 08:42:07;;;;;;;9.65;4.30;;;;;;;11.50;73.39;100187.59;5065972;28;20442;-77
2024/01/05 08:44:33;;;;;;;10.80;6.53;;;;;;;11.62;74.19;100206.38;5050446;28;20165;-77
2024/01/05 08:46:58;;;;;;;16.15;9.38;;;;;;;11.76;71.32;100188.34;5049793;28;20501;-78
2024/01/05 08:49:24;;;;;;;13.20;7.20;;;;;;;11.96;71.76;100213.00;5050676;28;20029;-78
2024/01/05 08:51:49;;;;;;;13.13;8.07;;;;;;;12.18;72.05;100204.53;5068360;28;20378;-78
2024/01/05 08:54:15;;;;;;;12.68;6.30;;;;;;;11.97;73.44;100209.31;5068316;28;20404;-78
2024/01/05 08:56:40;;;;;;;10.38;5.80;;;;;;;12.23;73.87;100215.34;5068237;28;20485;-77
2024/01/05 08:59:06;;;;;;;9.18;5.57;;;;;;;12.23;73.37;100201.97;5068418;28;20109;-78
2024/01/05 09:01:34;;;;;;;10.48;5.50;;;;;;;12.41;73.74;100193.91;5054869;28;20032;-78
2024/01/05 09:04:00;;;;;;;7.80;4.20;;;;;;;12.61;71.79;100198.16;5067697;28;20028;-77
2024/01/05 09:06:25;;;;;;;6.18;3.40;;;;;;;12.90;70.11;100196.47;5067213;28;20033;-77
2024/01/05 09:08:51;;;;;;;6.93;3.40;;;;;;;12.69;70.44;100173.75;5067027;28;20024;-78
2024/01/05 09:11:16;;;;;;;6.00;3.58;;;;;;;13.10;68.64;100198.81;5066663;28;20029;-77
2024/01/05 09:13:42;;;;;;;6.32;3.65;;;;;;;13.16;70.63;100172.97;5084835;28;20420;-78
2024/01/05 09:16:07;;;;;;;7.20;3.85;;;;;;;13.55;68.87;100190.19;5069170;28;20111;-77
2024/01/05 09:18:33;;;;;;;9.48;4.55;;;;;;;13.52;67.28;100193.34;5072782;28;20036;-78
2024/01/05 09:21:00;;;;;;;8.32;3.67;;;;;;;13.76;65.44;100198.69;5065879;28;20048;-78
2024/01/05 09:23:26;;;;;;;8.40;4.53;;;;;;;13.82;65.27;100197.72;5067297;28;20021;-79
2024/01/05 09:25:52;;;;;;;10.60;4.05;;;;;;;14.20;63.99;100189.09;5050209;28;20033;-78
2024/01/05 09:28:18;;;;;;;10.32;4.13;;;;;;;14.10;62.28;100166.63;5067877;28;20032;-77
2024/01/05 09:30:43;;;;;;;6.10;3.55;;;;;;;14.29;63.75;100181.47;5067760;28;20040;-79
2024/01/05 09:33:08;;;;;;;6.47;3.33;;;;;;;14.49;62.61;100196.31;5068054;28;20028;-78
2024/01/05 09:35:34;;;;;;;7.35;3.70;;;;;;;14.73;61.79;100189.78;5067892;28;20028;-78
2024/01/05 09:37:59;;;;;;;7.80;3.80;;;;;;;14.69;60.58;100169.84;5068200;28;20039;-77
2024/01/05 09:40:25;;;;;;;7.53;4.00;;;;;;;15.13;58.96;100182.63;5067287;28;20036;-78
2024/01/05 09:42:51;;;;;;;8.05;4.18;;;;;;;15.30;60.21;100191.44;5068112;28;20074;-78
2024/01/05 09:45:21;;;;;;;6.50;3.53;;;;;;;15.51;57.78;100179.13;5068135;28;20056;-79
2024/01/05 09:47:51;;;;;;;6.78;3.60;;;;;;;15.50;57.28;100164.03;5067998;28;20107;-78
2024/01/05 09:50:17;;;;;;;6.97;3.15;;;;;;;15.66;57.89;100190.06;5067030;28;20032;-78
2024/01/05 09:52:43;;;;;;;8.25;4.00;;;;;;;16.14;57.64;100190.41;5067755;28;20089;-79
2024/01/05 09:55:09;;;;;;;8.60;3.78;;;;;;;16.46;56.21;100184.25;5049855;28;20390;-78
2024/01/05 09:57:36;;;;;;;6.80;2.88;;;;;;;16.39;53.69;100159.44;5067753;28;20539;-78
2024/01/05 10:00:03;;;;;;;7.18;2.83;;;;;;;16.54;55.35;100175.72;5067456;28;20028;-79
2024/01/05 10:02:36;;;;;;;7.00;2.63;;;;;;;16.85;53.48;100174.09;5067544;28;20097;-78
2024/01/05 10:05:01;;;;;;;4.97;2.45;;;;;;;16.70;51.91;100176.66;5049608;28;20063;-78
2024/01/05 10:07:27;;;;;;;6.53;2.75;;;;;;;16.44;53.42;100135.25;5067331;28;20060;-77
2024/01/05 10:09:54;;;;;;;5.30;2.33;;;;;;;16.33;51.35;100123.56;5067557;28;20583;-78
2024/01/05 10:12:19;;;;;;;4.32;1.80;;;;;;;16.63;50.44;100154.50;5065417;28;20056;-78
2024/01/05 10:14:48;;;;;;;6.65;2.67;;;;;;;16.71;54.07;100107.44;5049619;28;20032;-79
2024/01/05 10:17:15;;;;;;;4.68;2.28;;;;;;;17.27;53.99;100132.88;5067528;28;20596;-77
2024/01/05 10:19:41;;;;;;;5.15;2.53;;;;;;;17.15;54.66;100116.13;5067413;28;20032;-79
2024/01/05 10:22:10;;;;;;;4.95;2.90;;;;;;;17.25;53.45;100121.56;5048901;28;20390;-79
2024/01/05 10:24:36;;;;;;;5.07;2.70;;;;;;;17.23;51.46;100104.03;5067404;28;20029;-79
2024/01/05 10:27:04;;;;;;;6.82;2.70;;;;;;;17.35;53.66;100098.44;5067595;28;20039;-78
2024/01/05 10:29:30;;;;;;;4.45;2.50;;;;;;;17.51;53.79;100110.06;5067356;28;20086;-79
2024/01/05 10:32:15;;;;;;;5.82;2.33;;;;;;;17.81;52.41;100103.97;5067445;28;20056;-77
2024/01/05 10:34:45;;;;;;;5.95;2.33;;;;;;;17.90;51.47;100097.03;5070757;28;20055;-79
2024/01/05 10:37:12;;;;;;;4.40;1.90;;;;;;;17.81;50.61;100082.41;5070960;28;20405;-78
2024/01/05 10:39:38;;;;;;;7.25;1.90;;;;;;;18.19;49.54;100099.22;5071172;28;20044;-78
2024/01/05 10:42:26;;;;;;;6.30;3.28;;;;;;;18.24;50.75;100096.53;5070935;28;20028;-77
2024/01/05 10:44:54;;;;;;;10.27;6.18;;;;;;;18.59;49.78;100079.53;5071459;28;20040;-78
2024/01/05 10:47:20;;;;;;;53.20;30.13;;;;;;;18.67;49.53;100045.72;5071307;28;20035;-80
2024/01/05 10:49:50;;;;;;;53.95;31.80;;;;;;;19.10;47.90;100073.22;5071160;28;20060;-78
2024/01/05 10:52:32;;;;;;;5.07;2.40;;;;;;;19.32;46.38;100072.06;5052927;28;20066;-78
2024/01/05 10:55:02;;;;;;;7.95;7.15;;;;;;;19.53;47.01;100073.56;5071252;28;20032;-78
2024/01/05 10:57:29;;;;;;;6.30;2.40;;;;;;;19.41;45.31;100054.16;5070608;28;20580;-78
2024/01/05 10:59:56;;;;;;;5.67;2.17;;;;;;;20.34;43.61;100074.16;5070512;28;20025;-77
2024/01/05 11:02:21;;;;;;;4.68;2.72;;;;;;;22.18;39.60;100083.97;5076579;28;20271;-79
2024/01/05 11:05:08;;;;;;;6.40;3.80;;;;;;;23.84;39.16;100075.97;5071492;28;20028;-78
2024/01/05 11:07:34;;;;;;;8.07;4.30;;;;;;;25.54;35.46;100072.38;5072104;28;20028;-77
2024/01/05 11:10:33;;;;;;;13.23;12.13;;;;;;;24.98;35.81;100061.94;5070297;28;20039;-78
2024/01/05 11:13:02;;;;;;;6.30;3.00;;;;;;;25.04;35.49;100070.78;5069984;28;20040;-78
2024/01/05 11:15:46;;;;;;;5.35;2.50;;;;;;;25.07;34.63;100072.91;5071268;28;20036;-79
2024/01/05 11:18:33;;;;;;;6.05;3.83;;;;;;;26.28;32.88;100079.66;5070438;28;20660;-77
2024/01/05 11:21:11;;;;;;;4.80;2.53;;;;;;;26.30;33.07;100071.13;5070217;28;20073;-78
2024/01/05 11:23:40;;;;;;;3.88;1.70;;;;;;;26.15;31.02;100080.63;5049956;28;20036;-79